Terminal Aerodrome Forecast
Issued by NWS

Home | Current Version | Previous Version | Text Only | Print | Product List | Glossary On
Versions: 1 2 3 4 5 6 7 8 9 10 11 12 13 14 15 16 17 18 19 20
307
FTUS46 KSEW 270520
TAFBLI
TAF
KBLI 270520Z 2706/2806 18006KT P6SM SCT040 OVC080
     FM270900 20007KT P6SM SCT015 BKN040 OVC080
      TEMPO 2710/2714 5SM -SHRA BKN015 OVC040
     FM271800 23006KT P6SM SCT020 BKN040
     FM272200 33010KT P6SM SCT040=

USA.gov is the U.S. government's official web portal to all federal, state and local government web resources and services.